sensor_id;sensor_type;location;lat;lon;timestamp;P1;durP1;ratioP1;P2;durP2;ratioP2
31368;SDS011;18004;48.416;10.066;2022-08-19T00:00:20;14.85;;;8.40;;
31368;SDS011;18004;48.416;10.066;2022-08-19T00:02:46;12.38;;;8.57;;
31368;SDS011;18004;48.416;10.066;2022-08-19T00:05:12;10.30;;;8.23;;
31368;SDS011;18004;48.416;10.066;2022-08-19T00:07:39;13.05;;;9.23;;
31368;SDS011;18004;48.416;10.066;2022-08-19T00:10:06;11.43;;;8.40;;
31368;SDS011;18004;48.416;10.066;2022-08-19T00:12:33;11.60;;;8.60;;
31368;SDS011;18004;48.416;10.066;2022-08-19T00:14:59;14.48;;;9.05;;
31368;SDS011;18004;48.416;10.066;2022-08-19T00:17:25;13.02;;;9.13;;
31368;SDS011;18004;48.416;10.066;2022-08-19T00:19:51;16.08;;;9.20;;
31368;SDS011;18004;48.416;10.066;2022-08-19T00:22:17;18.77;;;10.65;;
31368;SDS011;18004;48.416;10.066;2022-08-19T00:24:43;15.63;;;10.23;;
31368;SDS011;18004;48.416;10.066;2022-08-19T00:27:10;18.65;;;11.07;;
31368;SDS011;18004;48.416;10.066;2022-08-19T00:29:37;15.52;;;10.93;;
31368;SDS011;18004;48.416;10.066;2022-08-19T00:32:03;16.75;;;11.57;;
31368;SDS011;18004;48.416;10.066;2022-08-19T00:34:29;21.13;;;12.32;;
31368;SDS011;18004;48.416;10.066;2022-08-19T00:36:56;18.73;;;12.18;;
31368;SDS011;18004;48.416;10.066;2022-08-19T00:39:22;18.40;;;11.25;;
31368;SDS011;18004;48.416;10.066;2022-08-19T00:41:48;25.05;;;12.27;;
31368;SDS011;18004;48.416;10.066;2022-08-19T00:44:20;17.40;;;11.98;;
31368;SDS011;18004;48.416;10.066;2022-08-19T00:46:48;19.27;;;12.15;;
31368;SDS011;18004;48.416;10.066;2022-08-19T00:51:42;19.42;;;12.82;;
31368;SDS011;18004;48.416;10.066;2022-08-19T00:54:11;24.73;;;12.10;;
31368;SDS011;18004;48.416;10.066;2022-08-19T00:56:38;16.50;;;12.55;;
31368;SDS011;18004;48.416;10.066;2022-08-19T00:59:05;17.55;;;13.27;;
31368;SDS011;18004;48.416;10.066;2022-08-19T01:01:37;20.02;;;12.43;;
31368;SDS011;18004;48.416;10.066;2022-08-19T01:04:05;16.30;;;11.57;;
31368;SDS011;18004;48.416;10.066;2022-08-19T01:06:32;16.85;;;12.23;;
31368;SDS011;18004;48.416;10.066;2022-08-19T01:08:59;19.52;;;13.02;;
31368;SDS011;18004;48.416;10.066;2022-08-19T01:11:26;18.02;;;12.15;;
31368;SDS011;18004;48.416;10.066;2022-08-19T01:13:53;20.00;;;12.07;;
31368;SDS011;18004;48.416;10.066;2022-08-19T01:16:20;15.95;;;12.02;;
31368;SDS011;18004;48.416;10.066;2022-08-19T01:18:49;14.20;;;11.50;;
31368;SDS011;18004;48.416;10.066;2022-08-19T01:21:20;16.60;;;12.05;;
31368;SDS011;18004;48.416;10.066;2022-08-19T01:23:47;14.43;;;10.15;;
31368;SDS011;18004;48.416;10.066;2022-08-19T01:26:15;17.33;;;11.07;;
31368;SDS011;18004;48.416;10.066;2022-08-19T01:28:44;16.20;;;11.43;;
31368;SDS011;18004;48.416;10.066;2022-08-19T01:31:16;15.50;;;11.00;;
31368;SDS011;18004;48.416;10.066;2022-08-19T01:33:47;15.95;;;10.77;;
31368;SDS011;18004;48.416;10.066;2022-08-19T01:36:15;19.25;;;11.80;;
31368;SDS011;18004;48.416;10.066;2022-08-19T01:39:05;19.58;;;10.30;;
31368;SDS011;18004;48.416;10.066;2022-08-19T01:41:33;17.33;;;12.10;;
31368;SDS011;18004;48.416;10.066;2022-08-19T01:43:59;17.02;;;11.05;;
31368;SDS011;18004;48.416;10.066;2022-08-19T01:46:28;17.05;;;11.30;;
31368;SDS011;18004;48.416;10.066;2022-08-19T01:48:55;17.02;;;11.60;;
31368;SDS011;18004;48.416;10.066;2022-08-19T01:51:21;15.73;;;11.75;;
31368;SDS011;18004;48.416;10.066;2022-08-19T01:53:50;15.18;;;11.18;;
31368;SDS011;18004;48.416;10.066;2022-08-19T01:56:17;19.15;;;11.10;;
31368;SDS011;18004;48.416;10.066;2022-08-19T01:58:45;14.75;;;10.70;;
31368;SDS011;18004;48.416;10.066;2022-08-19T02:01:39;13.43;;;10.02;;
31368;SDS011;18004;48.416;10.066;2022-08-19T02:04:05;17.55;;;11.57;;
31368;SDS011;18004;48.416;10.066;2022-08-19T02:06:31;16.83;;;11.35;;
31368;SDS011;18004;48.416;10.066;2022-08-19T02:08:58;16.95;;;11.60;;
31368;SDS011;18004;48.416;10.066;2022-08-19T02:11:25;19.63;;;11.18;;
31368;SDS011;18004;48.416;10.066;2022-08-19T02:13:54;16.02;;;11.27;;
31368;SDS011;18004;48.416;10.066;2022-08-19T02:16:20;15.57;;;11.27;;
31368;SDS011;18004;48.416;10.066;2022-08-19T02:18:47;16.80;;;11.05;;
31368;SDS011;18004;48.416;10.066;2022-08-19T02:21:16;21.88;;;11.38;;
31368;SDS011;18004;48.416;10.066;2022-08-19T02:23:43;16.75;;;11.88;;
31368;SDS011;18004;48.416;10.066;2022-08-19T02:26:09;20.08;;;11.95;;
31368;SDS011;18004;48.416;10.066;2022-08-19T02:28:35;19.38;;;12.40;;
31368;SDS011;18004;48.416;10.066;2022-08-19T02:31:02;18.45;;;12.98;;
31368;SDS011;18004;48.416;10.066;2022-08-19T02:33:28;18.10;;;12.00;;
31368;SDS011;18004;48.416;10.066;2022-08-19T02:35:54;15.88;;;11.68;;
31368;SDS011;18004;48.416;10.066;2022-08-19T02:38:20;16.20;;;11.68;;
31368;SDS011;18004;48.416;10.066;2022-08-19T02:40:53;17.17;;;12.35;;
31368;SDS011;18004;48.416;10.066;2022-08-19T02:43:27;20.15;;;13.70;;
31368;SDS011;18004;48.416;10.066;2022-08-19T02:45:54;23.33;;;11.77;;
31368;SDS011;18004;48.416;10.066;2022-08-19T02:48:20;19.38;;;12.65;;
31368;SDS011;18004;48.416;10.066;2022-08-19T02:50:49;18.52;;;12.93;;
31368;SDS011;18004;48.416;10.066;2022-08-19T02:53:24;20.98;;;12.90;;
31368;SDS011;18004;48.416;10.066;2022-08-19T02:55:52;18.33;;;12.75;;
31368;SDS011;18004;48.416;10.066;2022-08-19T02:58:18;16.05;;;11.90;;
31368;SDS011;18004;48.416;10.066;2022-08-19T03:00:55;18.70;;;13.07;;
31368;SDS011;18004;48.416;10.066;2022-08-19T03:03:24;20.60;;;11.70;;
31368;SDS011;18004;48.416;10.066;2022-08-19T03:05:50;17.98;;;11.70;;
31368;SDS011;18004;48.416;10.066;2022-08-19T03:08:16;15.65;;;11.82;;
31368;SDS011;18004;48.416;10.066;2022-08-19T03:10:43;17.05;;;12.30;;
31368;SDS011;18004;48.416;10.066;2022-08-19T03:13:15;19.13;;;12.73;;
31368;SDS011;18004;48.416;10.066;2022-08-19T03:18:09;16.27;;;12.00;;
31368;SDS011;18004;48.416;10.066;2022-08-19T03:20:39;17.15;;;11.52;;
31368;SDS011;18004;48.416;10.066;2022-08-19T03:23:10;24.08;;;12.73;;
31368;SDS011;18004;48.416;10.066;2022-08-19T03:25:41;15.95;;;11.18;;
31368;SDS011;18004;48.416;10.066;2022-08-19T03:30:39;17.58;;;12.02;;
31368;SDS011;18004;48.416;10.066;2022-08-19T03:33:08;16.08;;;11.68;;
31368;SDS011;18004;48.416;10.066;2022-08-19T03:35:35;17.48;;;11.63;;
31368;SDS011;18004;48.416;10.066;2022-08-19T03:38:04;21.25;;;11.63;;
31368;SDS011;18004;48.416;10.066;2022-08-19T03:40:32;20.35;;;12.75;;
31368;SDS011;18004;48.416;10.066;2022-08-19T03:43:00;19.50;;;12.38;;
31368;SDS011;18004;48.416;10.066;2022-08-19T03:45:26;18.40;;;12.95;;
31368;SDS011;18004;48.416;10.066;2022-08-19T03:47:52;20.58;;;11.85;;
31368;SDS011;18004;48.416;10.066;2022-08-19T03:50:18;17.33;;;11.88;;
31368;SDS011;18004;48.416;10.066;2022-08-19T03:52:48;20.80;;;13.02;;
31368;SDS011;18004;48.416;10.066;2022-08-19T03:55:15;17.67;;;12.25;;
31368;SDS011;18004;48.416;10.066;2022-08-19T03:57:42;18.63;;;12.05;;
31368;SDS011;18004;48.416;10.066;2022-08-19T04:00:08;17.90;;;12.18;;
31368;SDS011;18004;48.416;10.066;2022-08-19T04:02:34;18.67;;;11.95;;
31368;SDS011;18004;48.416;10.066;2022-08-19T04:05:00;24.58;;;13.48;;
31368;SDS011;18004;48.416;10.066;2022-08-19T04:07:26;20.88;;;12.93;;
31368;SDS011;18004;48.416;10.066;2022-08-19T04:09:52;19.70;;;12.23;;
31368;SDS011;18004;48.416;10.066;2022-08-19T04:12:18;20.58;;;12.77;;
31368;SDS011;18004;48.416;10.066;2022-08-19T04:14:45;21.83;;;14.00;;
31368;SDS011;18004;48.416;10.066;2022-08-19T04:17:11;19.35;;;12.60;;
31368;SDS011;18004;48.416;10.066;2022-08-19T04:19:39;20.65;;;12.93;;
31368;SDS011;18004;48.416;10.066;2022-08-19T04:22:06;20.95;;;12.68;;
31368;SDS011;18004;48.416;10.066;2022-08-19T04:24:35;19.50;;;12.13;;
31368;SDS011;18004;48.416;10.066;2022-08-19T04:27:01;23.30;;;13.13;;
31368;SDS011;18004;48.416;10.066;2022-08-19T04:29:27;16.48;;;12.15;;
31368;SDS011;18004;48.416;10.066;2022-08-19T04:31:54;21.45;;;13.05;;
31368;SDS011;18004;48.416;10.066;2022-08-19T04:34:22;17.75;;;13.00;;
31368;SDS011;18004;48.416;10.066;2022-08-19T04:36:51;25.05;;;14.52;;
31368;SDS011;18004;48.416;10.066;2022-08-19T04:39:20;21.15;;;13.38;;
31368;SDS011;18004;48.416;10.066;2022-08-19T04:41:47;23.58;;;13.90;;
31368;SDS011;18004;48.416;10.066;2022-08-19T04:44:33;23.50;;;13.80;;
31368;SDS011;18004;48.416;10.066;2022-08-19T04:47:00;25.13;;;13.90;;
31368;SDS011;18004;48.416;10.066;2022-08-19T04:49:30;24.50;;;14.05;;
31368;SDS011;18004;48.416;10.066;2022-08-19T04:51:56;21.30;;;13.85;;
31368;SDS011;18004;48.416;10.066;2022-08-19T04:54:23;26.35;;;14.43;;
31368;SDS011;18004;48.416;10.066;2022-08-19T04:56:50;22.40;;;14.48;;
31368;SDS011;18004;48.416;10.066;2022-08-19T04:59:17;20.95;;;13.88;;
31368;SDS011;18004;48.416;10.066;2022-08-19T05:01:45;27.98;;;14.93;;
31368;SDS011;18004;48.416;10.066;2022-08-19T05:04:14;24.15;;;13.60;;
31368;SDS011;18004;48.416;10.066;2022-08-19T05:06:42;24.27;;;14.85;;
31368;SDS011;18004;48.416;10.066;2022-08-19T05:09:08;23.27;;;13.95;;
31368;SDS011;18004;48.416;10.066;2022-08-19T05:11:35;22.90;;;14.90;;
31368;SDS011;18004;48.416;10.066;2022-08-19T05:14:06;26.80;;;15.27;;
31368;SDS011;18004;48.416;10.066;2022-08-19T05:16:32;26.10;;;16.20;;
31368;SDS011;18004;48.416;10.066;2022-08-19T05:18:58;26.33;;;14.68;;
31368;SDS011;18004;48.416;10.066;2022-08-19T05:21:43;19.50;;;14.20;;
31368;SDS011;18004;48.416;10.066;2022-08-19T05:24:28;24.45;;;15.25;;
31368;SDS011;18004;48.416;10.066;2022-08-19T05:26:55;25.10;;;14.48;;
31368;SDS011;18004;48.416;10.066;2022-08-19T05:29:25;23.23;;;15.32;;
31368;SDS011;18004;48.416;10.066;2022-08-19T05:31:53;23.63;;;15.40;;
31368;SDS011;18004;48.416;10.066;2022-08-19T05:34:20;25.27;;;14.68;;
31368;SDS011;18004;48.416;10.066;2022-08-19T05:36:48;29.40;;;15.07;;
31368;SDS011;18004;48.416;10.066;2022-08-19T05:39:16;24.20;;;14.18;;
31368;SDS011;18004;48.416;10.066;2022-08-19T05:41:49;23.42;;;14.98;;
31368;SDS011;18004;48.416;10.066;2022-08-19T05:44:18;26.92;;;15.05;;
31368;SDS011;18004;48.416;10.066;2022-08-19T05:46:45;20.58;;;14.00;;
31368;SDS011;18004;48.416;10.066;2022-08-19T05:49:18;22.15;;;13.57;;
31368;SDS011;18004;48.416;10.066;2022-08-19T05:51:45;24.65;;;15.27;;
31368;SDS011;18004;48.416;10.066;2022-08-19T05:54:11;23.48;;;14.38;;
31368;SDS011;18004;48.416;10.066;2022-08-19T05:56:39;23.73;;;15.40;;
31368;SDS011;18004;48.416;10.066;2022-08-19T05:59:06;26.83;;;16.33;;
31368;SDS011;18004;48.416;10.066;2022-08-19T06:01:40;26.55;;;16.05;;
31368;SDS011;18004;48.416;10.066;2022-08-19T06:04:08;29.38;;;16.63;;
31368;SDS011;18004;48.416;10.066;2022-08-19T06:06:34;29.13;;;16.10;;
31368;SDS011;18004;48.416;10.066;2022-08-19T06:09:02;26.05;;;15.35;;
31368;SDS011;18004;48.416;10.066;2022-08-19T06:11:36;26.20;;;17.08;;
31368;SDS011;18004;48.416;10.066;2022-08-19T06:14:04;30.70;;;16.70;;
31368;SDS011;18004;48.416;10.066;2022-08-19T06:16:34;25.90;;;15.77;;
31368;SDS011;18004;48.416;10.066;2022-08-19T06:19:03;25.00;;;15.15;;
31368;SDS011;18004;48.416;10.066;2022-08-19T06:21:32;24.55;;;14.95;;
31368;SDS011;18004;48.416;10.066;2022-08-19T06:23:59;21.88;;;14.05;;
31368;SDS011;18004;48.416;10.066;2022-08-19T06:26:25;29.13;;;16.58;;
31368;SDS011;18004;48.416;10.066;2022-08-19T06:28:52;28.10;;;16.20;;
31368;SDS011;18004;48.416;10.066;2022-08-19T06:31:20;32.08;;;16.90;;
31368;SDS011;18004;48.416;10.066;2022-08-19T06:33:48;27.25;;;16.50;;
31368;SDS011;18004;48.416;10.066;2022-08-19T06:38:50;24.98;;;14.43;;
31368;SDS011;18004;48.416;10.066;2022-08-19T06:41:16;23.60;;;15.57;;
31368;SDS011;18004;48.416;10.066;2022-08-19T06:43:44;28.08;;;16.92;;
31368;SDS011;18004;48.416;10.066;2022-08-19T06:46:12;23.70;;;15.07;;
31368;SDS011;18004;48.416;10.066;2022-08-19T06:48:40;28.83;;;16.02;;
31368;SDS011;18004;48.416;10.066;2022-08-19T06:51:06;26.58;;;16.13;;
31368;SDS011;18004;48.416;10.066;2022-08-19T06:53:33;28.70;;;15.23;;
31368;SDS011;18004;48.416;10.066;2022-08-19T06:55:59;29.63;;;14.20;;
31368;SDS011;18004;48.416;10.066;2022-08-19T06:58:28;23.42;;;15.70;;
31368;SDS011;18004;48.416;10.066;2022-08-19T07:01:06;28.33;;;16.23;;
31368;SDS011;18004;48.416;10.066;2022-08-19T07:03:34;30.73;;;17.63;;
31368;SDS011;18004;48.416;10.066;2022-08-19T07:06:09;27.67;;;16.65;;
31368;SDS011;18004;48.416;10.066;2022-08-19T07:08:37;27.17;;;15.40;;
31368;SDS011;18004;48.416;10.066;2022-08-19T07:11:07;30.70;;;16.95;;
31368;SDS011;18004;48.416;10.066;2022-08-19T07:13:34;31.23;;;17.38;;
31368;SDS011;18004;48.416;10.066;2022-08-19T07:16:09;27.92;;;16.27;;
31368;SDS011;18004;48.416;10.066;2022-08-19T07:18:39;29.58;;;16.67;;
31368;SDS011;18004;48.416;10.066;2022-08-19T07:21:07;38.70;;;16.67;;
31368;SDS011;18004;48.416;10.066;2022-08-19T07:23:35;29.10;;;16.50;;
31368;SDS011;18004;48.416;10.066;2022-08-19T07:26:05;28.77;;;16.25;;
31368;SDS011;18004;48.416;10.066;2022-08-19T07:28:37;31.95;;;17.27;;
31368;SDS011;18004;48.416;10.066;2022-08-19T07:31:07;31.50;;;18.00;;
31368;SDS011;18004;48.416;10.066;2022-08-19T07:33:34;30.47;;;17.20;;
31368;SDS011;18004;48.416;10.066;2022-08-19T07:36:04;32.80;;;16.70;;
31368;SDS011;18004;48.416;10.066;2022-08-19T07:38:32;31.52;;;17.98;;
31368;SDS011;18004;48.416;10.066;2022-08-19T07:40:59;29.30;;;16.52;;
31368;SDS011;18004;48.416;10.066;2022-08-19T07:43:26;32.50;;;17.67;;
31368;SDS011;18004;48.416;10.066;2022-08-19T07:45:52;30.25;;;17.02;;
31368;SDS011;18004;48.416;10.066;2022-08-19T07:48:22;26.48;;;15.65;;
31368;SDS011;18004;48.416;10.066;2022-08-19T07:50:51;26.20;;;15.80;;
31368;SDS011;18004;48.416;10.066;2022-08-19T07:55:48;26.00;;;15.82;;
31368;SDS011;18004;48.416;10.066;2022-08-19T07:58:15;32.50;;;16.85;;
31368;SDS011;18004;48.416;10.066;2022-08-19T08:00:44;27.77;;;14.75;;
31368;SDS011;18004;48.416;10.066;2022-08-19T08:03:12;26.38;;;15.50;;
31368;SDS011;18004;48.416;10.066;2022-08-19T08:05:41;28.45;;;14.73;;
31368;SDS011;18004;48.416;10.066;2022-08-19T08:08:26;27.63;;;15.48;;
31368;SDS011;18004;48.416;10.066;2022-08-19T08:11:11;24.13;;;15.10;;
31368;SDS011;18004;48.416;10.066;2022-08-19T08:13:37;22.23;;;14.18;;
31368;SDS011;18004;48.416;10.066;2022-08-19T08:16:03;24.70;;;14.25;;
31368;SDS011;18004;48.416;10.066;2022-08-19T08:18:29;20.88;;;14.43;;
31368;SDS011;18004;48.416;10.066;2022-08-19T08:20:56;25.02;;;14.25;;
31368;SDS011;18004;48.416;10.066;2022-08-19T08:23:23;22.95;;;14.52;;
31368;SDS011;18004;48.416;10.066;2022-08-19T08:25:56;27.50;;;16.08;;
31368;SDS011;18004;48.416;10.066;2022-08-19T08:28:23;31.33;;;16.50;;
31368;SDS011;18004;48.416;10.066;2022-08-19T08:30:50;26.90;;;15.20;;
31368;SDS011;18004;48.416;10.066;2022-08-19T08:33:18;32.30;;;16.90;;
31368;SDS011;18004;48.416;10.066;2022-08-19T08:35:45;26.13;;;16.45;;
31368;SDS011;18004;48.416;10.066;2022-08-19T08:38:11;22.77;;;14.02;;
31368;SDS011;18004;48.416;10.066;2022-08-19T08:40:44;29.08;;;17.15;;
31368;SDS011;18004;48.416;10.066;2022-08-19T08:46:01;27.52;;;17.83;;
31368;SDS011;18004;48.416;10.066;2022-08-19T08:48:37;28.08;;;17.20;;
31368;SDS011;18004;48.416;10.066;2022-08-19T08:51:15;27.40;;;17.30;;
31368;SDS011;18004;48.416;10.066;2022-08-19T08:53:54;36.13;;;17.70;;
31368;SDS011;18004;48.416;10.066;2022-08-19T08:56:21;31.65;;;18.23;;
31368;SDS011;18004;48.416;10.066;2022-08-19T08:58:49;36.13;;;19.58;;
31368;SDS011;18004;48.416;10.066;2022-08-19T09:01:22;31.38;;;17.70;;
31368;SDS011;18004;48.416;10.066;2022-08-19T09:03:48;28.98;;;17.08;;
31368;SDS011;18004;48.416;10.066;2022-08-19T09:06:19;29.23;;;16.23;;
31368;SDS011;18004;48.416;10.066;2022-08-19T09:09:17;29.02;;;17.42;;
31368;SDS011;18004;48.416;10.066;2022-08-19T09:12:17;29.98;;;17.20;;
31368;SDS011;18004;48.416;10.066;2022-08-19T09:15:10;29.98;;;18.05;;
31368;SDS011;18004;48.416;10.066;2022-08-19T09:17:38;29.50;;;17.65;;
31368;SDS011;18004;48.416;10.066;2022-08-19T09:22:54;32.83;;;17.65;;
31368;SDS011;18004;48.416;10.066;2022-08-19T09:25:21;31.95;;;17.10;;
31368;SDS011;18004;48.416;10.066;2022-08-19T09:27:48;31.48;;;18.60;;
31368;SDS011;18004;48.416;10.066;2022-08-19T09:30:25;32.88;;;18.77;;
31368;SDS011;18004;48.416;10.066;2022-08-19T09:32:53;29.92;;;17.65;;
31368;SDS011;18004;48.416;10.066;2022-08-19T09:35:23;30.83;;;17.27;;
31368;SDS011;18004;48.416;10.066;2022-08-19T09:37:51;30.73;;;17.45;;
31368;SDS011;18004;48.416;10.066;2022-08-19T09:40:17;26.88;;;17.75;;
31368;SDS011;18004;48.416;10.066;2022-08-19T09:42:44;28.05;;;17.23;;
31368;SDS011;18004;48.416;10.066;2022-08-19T09:45:14;33.50;;;18.58;;
31368;SDS011;18004;48.416;10.066;2022-08-19T09:47:46;29.98;;;18.20;;
31368;SDS011;18004;48.416;10.066;2022-08-19T09:50:13;34.78;;;19.17;;
31368;SDS011;18004;48.416;10.066;2022-08-19T09:52:38;36.03;;;20.02;;
31368;SDS011;18004;48.416;10.066;2022-08-19T09:55:05;29.40;;;18.70;;
31368;SDS011;18004;48.416;10.066;2022-08-19T09:57:32;29.88;;;18.85;;
31368;SDS011;18004;48.416;10.066;2022-08-19T09:59:58;35.65;;;18.73;;
31368;SDS011;18004;48.416;10.066;2022-08-19T10:02:24;33.38;;;18.98;;
31368;SDS011;18004;48.416;10.066;2022-08-19T10:04:50;27.45;;;18.33;;
31368;SDS011;18004;48.416;10.066;2022-08-19T10:07:35;30.83;;;18.20;;
31368;SDS011;18004;48.416;10.066;2022-08-19T10:10:02;28.90;;;18.35;;
31368;SDS011;18004;48.416;10.066;2022-08-19T10:12:31;32.67;;;18.02;;
31368;SDS011;18004;48.416;10.066;2022-08-19T10:14:57;27.08;;;16.50;;
31368;SDS011;18004;48.416;10.066;2022-08-19T10:17:23;30.45;;;19.08;;
31368;SDS011;18004;48.416;10.066;2022-08-19T10:19:50;31.30;;;17.75;;
31368;SDS011;18004;48.416;10.066;2022-08-19T10:22:17;28.15;;;17.58;;
31368;SDS011;18004;48.416;10.066;2022-08-19T10:24:44;33.65;;;18.42;;
31368;SDS011;18004;48.416;10.066;2022-08-19T10:27:12;31.38;;;16.60;;
31368;SDS011;18004;48.416;10.066;2022-08-19T10:29:39;26.27;;;16.75;;
31368;SDS011;18004;48.416;10.066;2022-08-19T10:32:06;29.50;;;17.67;;
31368;SDS011;18004;48.416;10.066;2022-08-19T10:34:33;28.92;;;17.13;;
31368;SDS011;18004;48.416;10.066;2022-08-19T10:37:01;27.60;;;16.55;;
31368;SDS011;18004;48.416;10.066;2022-08-19T10:39:28;25.95;;;15.57;;
31368;SDS011;18004;48.416;10.066;2022-08-19T10:41:55;24.45;;;14.57;;
31368;SDS011;18004;48.416;10.066;2022-08-19T10:44:21;25.45;;;14.77;;
31368;SDS011;18004;48.416;10.066;2022-08-19T10:46:49;22.00;;;14.65;;
31368;SDS011;18004;48.416;10.066;2022-08-19T10:49:15;23.15;;;15.00;;
31368;SDS011;18004;48.416;10.066;2022-08-19T10:51:41;24.23;;;14.68;;
31368;SDS011;18004;48.416;10.066;2022-08-19T10:54:33;23.13;;;14.73;;
31368;SDS011;18004;48.416;10.066;2022-08-19T10:57:17;26.58;;;15.68;;
31368;SDS011;18004;48.416;10.066;2022-08-19T10:59:43;23.88;;;15.32;;
31368;SDS011;18004;48.416;10.066;2022-08-19T11:02:10;26.05;;;16.40;;
31368;SDS011;18004;48.416;10.066;2022-08-19T11:04:37;29.67;;;16.48;;
31368;SDS011;18004;48.416;10.066;2022-08-19T11:07:05;23.63;;;15.50;;
31368;SDS011;18004;48.416;10.066;2022-08-19T11:09:31;23.13;;;14.90;;
31368;SDS011;18004;48.416;10.066;2022-08-19T11:12:04;25.10;;;14.55;;
31368;SDS011;18004;48.416;10.066;2022-08-19T11:14:31;24.67;;;16.20;;
31368;SDS011;18004;48.416;10.066;2022-08-19T11:16:57;27.67;;;15.93;;
31368;SDS011;18004;48.416;10.066;2022-08-19T11:19:23;27.05;;;16.15;;
31368;SDS011;18004;48.416;10.066;2022-08-19T11:21:49;27.30;;;16.17;;
31368;SDS011;18004;48.416;10.066;2022-08-19T11:24:18;26.52;;;15.68;;
31368;SDS011;18004;48.416;10.066;2022-08-19T11:26:46;24.23;;;14.45;;
31368;SDS011;18004;48.416;10.066;2022-08-19T11:29:18;24.93;;;15.20;;
31368;SDS011;18004;48.416;10.066;2022-08-19T11:31:46;24.88;;;14.63;;
31368;SDS011;18004;48.416;10.066;2022-08-19T11:34:15;23.13;;;14.80;;
31368;SDS011;18004;48.416;10.066;2022-08-19T11:36:45;26.10;;;15.05;;
31368;SDS011;18004;48.416;10.066;2022-08-19T11:39:13;22.02;;;15.05;;
31368;SDS011;18004;48.416;10.066;2022-08-19T11:41:41;23.08;;;15.23;;
31368;SDS011;18004;48.416;10.066;2022-08-19T11:44:07;26.70;;;14.75;;
31368;SDS011;18004;48.416;10.066;2022-08-19T11:46:37;25.42;;;14.43;;
31368;SDS011;18004;48.416;10.066;2022-08-19T11:49:03;22.23;;;13.10;;
31368;SDS011;18004;48.416;10.066;2022-08-19T11:51:32;30.38;;;15.50;;
31368;SDS011;18004;48.416;10.066;2022-08-19T11:53:59;26.38;;;15.20;;
31368;SDS011;18004;48.416;10.066;2022-08-19T11:56:26;26.45;;;15.55;;
31368;SDS011;18004;48.416;10.066;2022-08-19T11:58:53;25.77;;;15.13;;
31368;SDS011;18004;48.416;10.066;2022-08-19T12:01:22;26.45;;;16.08;;
31368;SDS011;18004;48.416;10.066;2022-08-19T12:03:50;29.38;;;17.30;;
31368;SDS011;18004;48.416;10.066;2022-08-19T12:06:21;23.42;;;15.38;;
31368;SDS011;18004;48.416;10.066;2022-08-19T12:08:50;27.00;;;16.38;;
31368;SDS011;18004;48.416;10.066;2022-08-19T12:11:17;22.98;;;14.20;;
31368;SDS011;18004;48.416;10.066;2022-08-19T12:13:43;22.58;;;14.80;;
31368;SDS011;18004;48.416;10.066;2022-08-19T12:16:12;23.00;;;15.45;;
31368;SDS011;18004;48.416;10.066;2022-08-19T12:18:44;23.58;;;15.32;;
31368;SDS011;18004;48.416;10.066;2022-08-19T12:21:13;25.40;;;15.05;;
31368;SDS011;18004;48.416;10.066;2022-08-19T12:23:41;30.08;;;14.77;;
31368;SDS011;18004;48.416;10.066;2022-08-19T12:26:08;28.13;;;16.08;;
31368;SDS011;18004;48.416;10.066;2022-08-19T12:28:35;22.67;;;14.52;;
31368;SDS011;18004;48.416;10.066;2022-08-19T12:31:02;26.80;;;14.32;;
31368;SDS011;18004;48.416;10.066;2022-08-19T12:33:28;23.27;;;13.57;;
31368;SDS011;18004;48.416;10.066;2022-08-19T12:35:54;19.90;;;13.38;;
31368;SDS011;18004;48.416;10.066;2022-08-19T12:38:24;23.95;;;14.13;;
31368;SDS011;18004;48.416;10.066;2022-08-19T12:40:50;21.73;;;13.63;;
31368;SDS011;18004;48.416;10.066;2022-08-19T12:43:19;22.00;;;14.13;;
31368;SDS011;18004;48.416;10.066;2022-08-19T12:45:45;23.17;;;14.02;;
31368;SDS011;18004;48.416;10.066;2022-08-19T12:48:11;18.30;;;12.73;;
31368;SDS011;18004;48.416;10.066;2022-08-19T12:50:41;16.67;;;11.73;;
31368;SDS011;18004;48.416;10.066;2022-08-19T12:53:10;21.55;;;11.25;;
31368;SDS011;18004;48.416;10.066;2022-08-19T12:55:36;15.77;;;11.02;;
31368;SDS011;18004;48.416;10.066;2022-08-19T12:58:02;18.42;;;10.68;;
31368;SDS011;18004;48.416;10.066;2022-08-19T13:00:28;15.52;;;10.18;;
31368;SDS011;18004;48.416;10.066;2022-08-19T13:02:56;17.83;;;11.40;;
31368;SDS011;18004;48.416;10.066;2022-08-19T13:05:23;16.25;;;10.80;;
31368;SDS011;18004;48.416;10.066;2022-08-19T13:07:51;14.00;;;9.70;;
31368;SDS011;18004;48.416;10.066;2022-08-19T13:10:21;16.70;;;9.63;;
31368;SDS011;18004;48.416;10.066;2022-08-19T13:12:49;13.77;;;10.57;;
31368;SDS011;18004;48.416;10.066;2022-08-19T13:15:16;15.45;;;9.73;;
31368;SDS011;18004;48.416;10.066;2022-08-19T13:17:46;13.65;;;9.57;;
31368;SDS011;18004;48.416;10.066;2022-08-19T13:20:17;14.18;;;10.02;;
31368;SDS011;18004;48.416;10.066;2022-08-19T13:22:45;14.88;;;9.40;;
31368;SDS011;18004;48.416;10.066;2022-08-19T13:25:12;10.57;;;7.97;;
31368;SDS011;18004;48.416;10.066;2022-08-19T13:27:38;10.45;;;7.78;;
31368;SDS011;18004;48.416;10.066;2022-08-19T13:30:06;11.80;;;8.32;;
31368;SDS011;18004;48.416;10.066;2022-08-19T13:32:52;13.40;;;7.78;;
31368;SDS011;18004;48.416;10.066;2022-08-19T13:35:44;9.15;;;6.68;;
31368;SDS011;18004;48.416;10.066;2022-08-19T13:38:10;8.82;;;6.20;;
31368;SDS011;18004;48.416;10.066;2022-08-19T13:40:38;7.25;;;5.57;;
31368;SDS011;18004;48.416;10.066;2022-08-19T13:43:04;7.95;;;5.50;;
31368;SDS011;18004;48.416;10.066;2022-08-19T13:45:33;10.07;;;6.03;;
31368;SDS011;18004;48.416;10.066;2022-08-19T13:48:00;8.13;;;5.90;;
31368;SDS011;18004;48.416;10.066;2022-08-19T13:50:31;5.60;;;4.78;;
31368;SDS011;18004;48.416;10.066;2022-08-19T13:52:58;7.28;;;4.57;;
31368;SDS011;18004;48.416;10.066;2022-08-19T13:55:25;6.65;;;4.90;;
31368;SDS011;18004;48.416;10.066;2022-08-19T13:57:55;4.78;;;3.50;;
31368;SDS011;18004;48.416;10.066;2022-08-19T14:00:26;3.55;;;2.88;;
31368;SDS011;18004;48.416;10.066;2022-08-19T14:02:55;4.88;;;3.20;;
31368;SDS011;18004;48.416;10.066;2022-08-19T14:05:23;5.10;;;3.60;;
31368;SDS011;18004;48.416;10.066;2022-08-19T14:07:50;6.32;;;4.28;;
31368;SDS011;18004;48.416;10.066;2022-08-19T14:10:20;4.20;;;3.30;;
31368;SDS011;18004;48.416;10.066;2022-08-19T14:12:46;4.75;;;3.63;;
31368;SDS011;18004;48.416;10.066;2022-08-19T14:15:13;4.20;;;3.47;;
31368;SDS011;18004;48.416;10.066;2022-08-19T14:17:40;5.57;;;3.70;;
31368;SDS011;18004;48.416;10.066;2022-08-19T14:20:08;5.00;;;3.67;;
31368;SDS011;18004;48.416;10.066;2022-08-19T14:22:36;3.45;;;3.13;;
31368;SDS011;18004;48.416;10.066;2022-08-19T14:25:04;6.43;;;3.90;;
31368;SDS011;18004;48.416;10.066;2022-08-19T14:27:32;5.22;;;4.38;;
31368;SDS011;18004;48.416;10.066;2022-08-19T14:29:59;6.95;;;4.30;;
31368;SDS011;18004;48.416;10.066;2022-08-19T14:32:25;4.88;;;4.22;;
31368;SDS011;18004;48.416;10.066;2022-08-19T14:34:51;4.68;;;4.28;;
31368;SDS011;18004;48.416;10.066;2022-08-19T14:37:18;4.90;;;3.97;;